createdAt,value
2022-12-31T00:02:17.640Z,5.43
2022-12-31T00:04:48.155Z,6.35
2022-12-31T00:07:18.583Z,9.43
2022-12-31T00:09:49.395Z,7.53
2022-12-31T00:12:19.850Z,7.68
2022-12-31T00:14:50.186Z,6.88
2022-12-31T00:17:20.378Z,7.60
2022-12-31T00:19:50.575Z,5.55
2022-12-31T00:22:21.194Z,14.27
2022-12-31T00:24:51.395Z,10.55
2022-12-31T00:27:24.149Z,8.27
2022-12-31T00:29:57.160Z,6.90
2022-12-31T00:32:30.767Z,19.38
2022-12-31T00:35:00.956Z,11.63
2022-12-31T00:37:31.314Z,10.30
2022-12-31T00:40:01.869Z,16.00
2022-12-31T00:42:32.265Z,13.10
2022-12-31T00:45:02.472Z,12.10
2022-12-31T00:47:32.723Z,9.38
2022-12-31T00:50:02.918Z,7.47
2022-12-31T00:52:33.229Z,9.07
2022-12-31T00:55:03.495Z,10.77
2022-12-31T00:57:33.713Z,12.02
2022-12-31T01:00:03.942Z,6.88
2022-12-31T01:02:35.072Z,8.35
2022-12-31T01:05:05.514Z,5.15
2022-12-31T01:07:35.745Z,6.25
2022-12-31T01:10:06.395Z,7.45
2022-12-31T01:12:36.692Z,4.05
2022-12-31T01:15:07.370Z,8.35
2022-12-31T01:17:37.634Z,3.40
2022-12-31T01:20:08.281Z,6.55
2022-12-31T01:22:38.521Z,7.07
2022-12-31T01:25:09.253Z,8.77
2022-12-31T01:27:39.463Z,9.50
2022-12-31T01:30:10.261Z,7.20
2022-12-31T01:32:40.556Z,4.88
2022-12-31T01:35:11.160Z,6.07
2022-12-31T01:37:41.387Z,5.15
2022-12-31T01:40:11.928Z,5.40
2022-12-31T01:42:42.127Z,9.10
2022-12-31T01:45:16.883Z,6.57
2022-12-31T01:47:52.132Z,6.97
2022-12-31T01:50:29.722Z,7.55
2022-12-31T01:53:07.264Z,3.90
2022-12-31T01:55:50.788Z,6.00
2022-12-31T01:58:25.646Z,6.40
2022-12-31T02:00:56.953Z,4.97
2022-12-31T02:03:29.412Z,3.47
2022-12-31T02:06:40.878Z,6.38
2022-12-31T02:09:12.991Z,4.80
2022-12-31T02:11:43.274Z,5.65
2022-12-31T02:14:21.906Z,6.22
2022-12-31T02:17:17.931Z,4.68
2022-12-31T02:20:25.397Z,6.68
2022-12-31T02:23:25.234Z,5.38
2022-12-31T02:26:13.867Z,4.80
2022-12-31T02:29:05.897Z,5.38
2022-12-31T02:31:54.129Z,5.13
2022-12-31T02:34:43.724Z,4.10
2022-12-31T02:37:16.816Z,6.25
2022-12-31T02:39:47.522Z,4.57
2022-12-31T02:42:17.875Z,4.97
2022-12-31T02:44:48.142Z,3.28
2022-12-31T02:47:41.981Z,6.03
2022-12-31T02:50:57.262Z,3.65
2022-12-31T02:53:48.563Z,5.03
2022-12-31T02:56:25.088Z,6.25
2022-12-31T02:59:31.668Z,4.72
2022-12-31T03:02:18.046Z,4.05
2022-12-31T03:04:55.336Z,3.95
2022-12-31T03:07:27.964Z,4.15
2022-12-31T03:09:58.976Z,5.10
2022-12-31T03:12:49.601Z,3.88
2022-12-31T03:15:27.844Z,2.42
2022-12-31T03:18:11.395Z,4.97
2022-12-31T03:21:01.963Z,3.47
2022-12-31T03:23:37.915Z,2.67
2022-12-31T03:26:13.728Z,4.00
2022-12-31T03:28:49.352Z,3.25
2022-12-31T03:31:19.727Z,5.25
2022-12-31T03:33:50.046Z,4.60
2022-12-31T03:36:20.361Z,5.35
2022-12-31T03:38:52.813Z,5.15
2022-12-31T03:41:23.438Z,2.60
2022-12-31T03:43:53.704Z,4.45
2022-12-31T03:46:23.978Z,4.07
2022-12-31T03:48:54.165Z,3.17
2022-12-31T03:51:24.423Z,6.13
2022-12-31T03:53:54.599Z,4.35
2022-12-31T03:56:24.841Z,3.72
2022-12-31T03:58:55.040Z,3.05
2022-12-31T04:01:26.056Z,4.25
2022-12-31T04:03:56.449Z,4.82
2022-12-31T04:06:26.810Z,4.85
2022-12-31T04:08:57.091Z,3.72
2022-12-31T04:11:27.307Z,3.58
2022-12-31T04:13:57.516Z,3.53
2022-12-31T04:16:28.027Z,3.15
2022-12-31T04:18:58.233Z,3.13
2022-12-31T04:21:34.686Z,2.83
2022-12-31T04:24:05.921Z,3.88
2022-12-31T04:26:37.079Z,3.42
2022-12-31T04:29:07.593Z,4.32
2022-12-31T04:31:37.944Z,3.45
2022-12-31T04:34:08.450Z,3.28
2022-12-31T04:36:38.794Z,3.40
2022-12-31T04:39:09.055Z,4.10
2022-12-31T04:41:39.859Z,3.45
2022-12-31T04:44:10.207Z,3.35
2022-12-31T04:46:40.705Z,5.85
2022-12-31T04:49:11.725Z,3.58
2022-12-31T04:51:42.418Z,3.63
2022-12-31T04:54:12.763Z,2.72
2022-12-31T04:56:43.233Z,3.78
2022-12-31T04:59:13.604Z,4.50
2022-12-31T05:01:44.213Z,3.90
2022-12-31T05:04:14.533Z,3.42
2022-12-31T05:06:44.832Z,2.75
2022-12-31T05:09:15.086Z,2.75
2022-12-31T05:11:45.370Z,2.65
2022-12-31T05:14:18.963Z,5.28
2022-12-31T05:16:49.211Z,3.53
2022-12-31T05:19:19.833Z,3.00
2022-12-31T05:22:09.695Z,4.43
2022-12-31T05:24:39.932Z,2.70
2022-12-31T05:27:10.106Z,2.38
2022-12-31T05:29:40.307Z,6.05
2022-12-31T05:32:11.056Z,2.70
2022-12-31T05:34:41.340Z,3.13
2022-12-31T05:37:11.882Z,2.55
2022-12-31T05:39:42.269Z,3.35
2022-12-31T05:42:12.712Z,3.00
2022-12-31T05:44:42.960Z,3.78
2022-12-31T05:47:13.479Z,3.90
2022-12-31T05:49:43.887Z,4.20
2022-12-31T05:52:14.076Z,5.40
2022-12-31T05:54:44.567Z,3.40
2022-12-31T05:57:15.248Z,4.93
2022-12-31T05:59:45.645Z,2.60
2022-12-31T06:02:15.940Z,4.85
2022-12-31T06:04:46.233Z,4.40
2022-12-31T06:07:16.569Z,3.10
2022-12-31T06:09:48.016Z,3.67
2022-12-31T06:12:18.357Z,2.15
2022-12-31T06:14:48.950Z,2.28
2022-12-31T06:17:19.302Z,4.28
2022-12-31T06:19:50.496Z,3.50
2022-12-31T06:22:20.726Z,3.08
2022-12-31T06:24:51.151Z,3.20
2022-12-31T06:27:21.394Z,3.25
2022-12-31T06:29:52.812Z,4.07
2022-12-31T06:32:23.074Z,2.58
2022-12-31T06:34:53.431Z,2.90
2022-12-31T06:37:23.657Z,2.92
2022-12-31T06:39:53.888Z,3.25
2022-12-31T06:42:24.179Z,2.95
2022-12-31T06:44:54.424Z,2.83
2022-12-31T06:47:24.659Z,4.03
2022-12-31T06:49:55.051Z,4.97
2022-12-31T06:52:25.315Z,1.95
2022-12-31T06:54:55.793Z,3.08
2022-12-31T06:57:26.422Z,3.78
2022-12-31T06:59:57.033Z,5.60
2022-12-31T07:02:48.660Z,3.42
2022-12-31T07:05:22.015Z,4.68
2022-12-31T07:07:58.907Z,3.33
2022-12-31T07:10:42.455Z,7.03
2022-12-31T07:13:28.790Z,4.70
2022-12-31T07:16:52.113Z,6.43
2022-12-31T07:19:58.000Z,3.72
2022-12-31T07:22:28.548Z,3.35
2022-12-31T07:24:58.991Z,4.82
2022-12-31T07:27:41.269Z,4.20
2022-12-31T07:30:24.429Z,5.13
2022-12-31T07:33:17.176Z,3.30
2022-12-31T07:35:59.617Z,5.57
2022-12-31T07:38:52.601Z,3.40
2022-12-31T07:41:52.193Z,2.85
2022-12-31T07:44:48.434Z,4.40
2022-12-31T07:47:29.317Z,4.43
2022-12-31T07:50:00.041Z,3.33
2022-12-31T07:52:30.677Z,5.68
2022-12-31T07:55:00.869Z,2.35
2022-12-31T07:57:51.716Z,3.00
2022-12-31T08:00:22.662Z,4.03
2022-12-31T08:03:05.029Z,3.35
2022-12-31T08:05:43.259Z,5.18
2022-12-31T08:08:25.502Z,3.15
2022-12-31T08:11:16.378Z,4.03
2022-12-31T08:13:47.478Z,4.55
2022-12-31T08:16:18.244Z,4.95
2022-12-31T08:18:48.674Z,3.13
2022-12-31T08:21:50.918Z,3.60
2022-12-31T08:24:27.427Z,4.00
2022-12-31T08:27:33.467Z,3.22
2022-12-31T08:30:11.355Z,3.65
2022-12-31T08:32:47.682Z,3.95
2022-12-31T08:35:25.791Z,3.83
2022-12-31T08:38:29.657Z,2.67
2022-12-31T08:41:25.114Z,4.82
2022-12-31T08:44:25.506Z,2.67
2022-12-31T08:47:04.496Z,3.55
2022-12-31T08:49:37.905Z,4.18
2022-12-31T08:52:23.969Z,3.33
2022-12-31T08:54:54.693Z,3.80
2022-12-31T08:57:27.649Z,3.63
2022-12-31T09:00:15.348Z,3.65
2022-12-31T09:03:10.723Z,4.78
2022-12-31T09:06:01.727Z,6.05
2022-12-31T09:08:55.383Z,5.00
2022-12-31T09:11:52.885Z,2.70
2022-12-31T09:14:42.593Z,3.45
2022-12-31T09:17:20.506Z,3.05
2022-12-31T09:19:51.076Z,4.20
2022-12-31T09:22:21.579Z,2.80
2022-12-31T09:24:52.250Z,5.22
2022-12-31T09:27:34.542Z,2.97
2022-12-31T09:30:13.178Z,3.20
2022-12-31T09:33:01.732Z,3.20
2022-12-31T09:35:56.239Z,3.83
2022-12-31T09:38:44.765Z,3.35
2022-12-31T09:41:48.444Z,3.20
2022-12-31T09:44:37.394Z,3.90
2022-12-31T09:47:46.258Z,3.45
2022-12-31T09:50:36.552Z,4.93
2022-12-31T09:53:34.121Z,4.22
2022-12-31T09:56:18.276Z,4.45
2022-12-31T09:59:13.067Z,5.32
2022-12-31T10:02:03.039Z,4.65
2022-12-31T10:05:11.904Z,3.25
2022-12-31T10:07:53.909Z,4.15
2022-12-31T10:10:44.723Z,3.90
2022-12-31T10:13:36.332Z,5.20
2022-12-31T10:16:39.362Z,2.78
2022-12-31T10:19:38.659Z,6.38
2022-12-31T10:22:33.664Z,6.28
2022-12-31T10:25:38.831Z,3.33
2022-12-31T10:28:27.821Z,3.10
2022-12-31T10:31:21.786Z,3.03
2022-12-31T10:34:26.299Z,3.33
2022-12-31T10:37:16.155Z,2.75
2022-12-31T10:40:16.346Z,5.18
2022-12-31T10:42:53.882Z,2.88
2022-12-31T10:45:33.211Z,4.32
2022-12-31T10:48:27.441Z,4.28
2022-12-31T10:51:25.369Z,3.13
2022-12-31T10:53:58.931Z,3.78
2022-12-31T10:56:44.369Z,3.50
2022-12-31T10:59:38.451Z,3.60
2022-12-31T11:02:27.017Z,3.97
2022-12-31T11:05:26.779Z,3.55
2022-12-31T11:08:15.651Z,3.72
2022-12-31T11:10:51.803Z,3.42
2022-12-31T11:13:28.303Z,4.05
2022-12-31T11:16:16.562Z,5.32
2022-12-31T11:19:06.728Z,4.70
2022-12-31T11:21:58.197Z,3.58
2022-12-31T11:25:03.930Z,2.70
2022-12-31T11:28:14.482Z,2.95
2022-12-31T11:31:08.755Z,3.70
2022-12-31T11:34:00.416Z,3.05
2022-12-31T11:36:36.506Z,4.18
2022-12-31T11:39:37.751Z,3.33
2022-12-31T11:42:35.062Z,2.90
2022-12-31T11:45:50.418Z,2.65
2022-12-31T11:48:32.934Z,3.50
2022-12-31T11:51:39.347Z,3.40
2022-12-31T11:54:30.623Z,2.88
2022-12-31T11:57:27.012Z,3.88
2022-12-31T12:00:03.680Z,3.15
2022-12-31T12:02:39.681Z,5.18
2022-12-31T12:05:11.273Z,3.78
2022-12-31T12:07:41.963Z,3.55
2022-12-31T12:10:36.830Z,2.90
2022-12-31T12:13:20.563Z,3.83
2022-12-31T12:16:00.238Z,2.13
2022-12-31T12:18:51.732Z,3.92
2022-12-31T12:21:27.346Z,2.45
2022-12-31T12:24:01.137Z,3.17
2022-12-31T12:26:36.942Z,3.38
2022-12-31T12:29:22.532Z,2.35
2022-12-31T12:32:09.282Z,4.45
2022-12-31T12:34:49.159Z,3.65
2022-12-31T12:37:31.438Z,4.00
2022-12-31T12:40:33.100Z,4.18
2022-12-31T12:43:05.266Z,3.05
2022-12-31T12:45:51.691Z,2.35
2022-12-31T12:48:47.142Z,3.20
2022-12-31T12:51:41.420Z,2.30
2022-12-31T12:55:11.404Z,3.03
2022-12-31T12:58:19.305Z,2.28
2022-12-31T13:01:02.182Z,2.15
2022-12-31T13:04:32.413Z,2.17
2022-12-31T13:07:12.683Z,5.40
2022-12-31T13:10:04.001Z,2.45
2022-12-31T13:13:25.941Z,3.30
2022-12-31T13:16:03.343Z,2.85
2022-12-31T13:18:41.677Z,3.28
2022-12-31T13:21:35.583Z,2.40
2022-12-31T13:24:23.357Z,4.05
2022-12-31T13:27:19.306Z,4.75
2022-12-31T13:29:50.949Z,3.10
2022-12-31T13:32:25.699Z,2.22
2022-12-31T13:35:02.771Z,2.33
2022-12-31T13:37:42.718Z,2.90
2022-12-31T13:40:40.003Z,2.85
2022-12-31T13:43:27.928Z,3.05
2022-12-31T13:46:11.047Z,4.03
2022-12-31T13:48:51.300Z,5.57
2022-12-31T13:51:50.649Z,3.67
2022-12-31T13:54:29.615Z,3.08
2022-12-31T13:57:04.812Z,2.40
2022-12-31T13:59:39.742Z,5.93
2022-12-31T14:02:28.253Z,3.25
2022-12-31T14:05:07.183Z,5.70
2022-12-31T14:07:58.769Z,3.95
2022-12-31T14:11:07.372Z,3.47
2022-12-31T14:14:26.527Z,3.58
2022-12-31T14:17:30.061Z,2.25
2022-12-31T14:20:00.314Z,3.70
2022-12-31T14:22:41.833Z,4.25
2022-12-31T14:25:24.635Z,2.53
2022-12-31T14:27:57.835Z,4.03
2022-12-31T14:30:38.716Z,4.65
2022-12-31T14:33:30.121Z,3.83
2022-12-31T14:36:22.124Z,4.53
2022-12-31T14:39:07.876Z,2.63
2022-12-31T14:41:56.040Z,3.47
2022-12-31T14:44:56.063Z,3.63
2022-12-31T14:47:43.825Z,2.33
2022-12-31T14:50:24.385Z,2.47
2022-12-31T14:52:57.730Z,2.65
2022-12-31T14:55:33.889Z,2.75
2022-12-31T14:58:29.193Z,2.78
2022-12-31T15:01:04.946Z,2.17
2022-12-31T15:03:45.899Z,3.05
2022-12-31T15:06:25.374Z,3.38
2022-12-31T15:09:08.605Z,2.80
2022-12-31T15:12:06.218Z,2.58
2022-12-31T15:14:57.560Z,4.07
2022-12-31T15:17:36.336Z,2.60
2022-12-31T15:20:30.729Z,2.95
2022-12-31T15:23:01.199Z,3.00
2022-12-31T15:25:40.281Z,2.45
2022-12-31T15:28:29.216Z,2.17
2022-12-31T15:31:05.430Z,3.10
2022-12-31T15:33:43.348Z,1.85
2022-12-31T15:36:17.605Z,2.08
2022-12-31T15:38:49.081Z,2.20
2022-12-31T15:41:22.388Z,2.17
2022-12-31T15:44:13.907Z,1.98
2022-12-31T15:46:46.376Z,2.22
2022-12-31T15:49:24.700Z,4.88
2022-12-31T15:52:03.392Z,1.80
2022-12-31T15:54:38.370Z,2.03
2022-12-31T15:57:15.112Z,2.35
2022-12-31T15:59:46.437Z,1.80
2022-12-31T16:02:28.528Z,2.75
2022-12-31T16:04:59.355Z,2.28
2022-12-31T16:07:31.482Z,1.98
2022-12-31T16:10:04.851Z,1.90
2022-12-31T16:12:42.605Z,2.10
2022-12-31T16:15:26.914Z,2.35
2022-12-31T16:18:07.393Z,2.20
2022-12-31T16:20:45.585Z,2.05
2022-12-31T16:23:26.522Z,2.15
2022-12-31T16:26:02.048Z,3.15
2022-12-31T16:28:34.795Z,3.03
2022-12-31T16:31:16.136Z,2.47
2022-12-31T16:33:48.063Z,2.30
2022-12-31T16:36:27.281Z,2.50
2022-12-31T16:39:26.415Z,1.70
2022-12-31T16:42:30.992Z,2.08
2022-12-31T16:45:18.339Z,1.83
2022-12-31T16:47:49.948Z,3.80
2022-12-31T16:50:28.115Z,2.45
2022-12-31T16:53:07.619Z,3.30
2022-12-31T16:55:38.440Z,2.58
2022-12-31T16:58:19.791Z,1.58
2022-12-31T17:00:52.075Z,2.00
2022-12-31T17:03:24.669Z,2.55
2022-12-31T17:06:11.246Z,2.25
2022-12-31T17:08:46.421Z,3.15
2022-12-31T17:11:30.431Z,2.10
2022-12-31T17:14:10.057Z,2.75
2022-12-31T17:17:02.573Z,1.70
2022-12-31T17:19:39.746Z,2.20
2022-12-31T17:22:32.862Z,2.30
2022-12-31T17:25:08.557Z,2.03
2022-12-31T17:27:39.641Z,1.83
2022-12-31T17:30:38.305Z,1.70
2022-12-31T17:33:11.391Z,2.05
2022-12-31T17:35:44.138Z,2.25
2022-12-31T17:38:35.079Z,1.70
2022-12-31T17:41:11.122Z,1.98
2022-12-31T17:43:42.371Z,2.42
2022-12-31T17:46:18.197Z,1.77
2022-12-31T17:48:52.451Z,3.00
2022-12-31T17:51:24.297Z,2.15
2022-12-31T17:53:54.941Z,3.03
2022-12-31T17:56:25.211Z,2.17
2022-12-31T17:58:56.871Z,1.98
2022-12-31T18:01:27.161Z,2.13
2022-12-31T18:03:58.452Z,2.22
2022-12-31T18:06:28.879Z,1.73
2022-12-31T18:08:59.050Z,2.40
2022-12-31T18:11:30.456Z,2.58
2022-12-31T18:14:00.936Z,2.00
2022-12-31T18:16:31.577Z,2.25
2022-12-31T18:19:03.242Z,1.70
2022-12-31T18:21:37.770Z,2.20
2022-12-31T18:24:08.851Z,2.20
2022-12-31T18:26:39.118Z,1.95
2022-12-31T18:29:21.575Z,3.63
2022-12-31T18:31:53.031Z,2.95
2022-12-31T18:34:23.355Z,2.58
2022-12-31T18:36:53.636Z,2.10
2022-12-31T18:39:24.289Z,3.60
2022-12-31T18:41:54.559Z,1.90
2022-12-31T18:44:24.846Z,2.42
2022-12-31T18:46:55.028Z,1.70
2022-12-31T18:49:25.531Z,1.90
2022-12-31T18:51:56.883Z,1.70
2022-12-31T18:54:27.172Z,2.05
2022-12-31T18:56:57.466Z,1.67
2022-12-31T18:59:27.710Z,2.05
2022-12-31T19:01:58.064Z,2.78
2022-12-31T19:04:28.579Z,2.10
2022-12-31T19:06:59.272Z,2.13
2022-12-31T19:09:46.015Z,2.78
2022-12-31T19:12:17.441Z,2.13
2022-12-31T19:14:47.722Z,2.35
2022-12-31T19:17:18.091Z,1.67
2022-12-31T19:19:48.600Z,2.22
2022-12-31T19:22:18.901Z,3.20
2022-12-31T19:24:49.157Z,2.45
2022-12-31T19:27:19.476Z,6.05
2022-12-31T19:29:49.779Z,8.60
2022-12-31T19:32:20.003Z,1.52
2022-12-31T19:34:50.167Z,2.08
2022-12-31T19:37:20.412Z,6.32
2022-12-31T19:39:50.640Z,2.95
2022-12-31T19:42:21.097Z,2.58
2022-12-31T19:44:51.520Z,2.92
2022-12-31T19:47:22.042Z,2.25
2022-12-31T19:49:52.365Z,3.40
2022-12-31T19:52:22.704Z,2.05
2022-12-31T19:54:53.191Z,2.40
2022-12-31T19:57:23.615Z,2.17
2022-12-31T19:59:53.991Z,3.90
2022-12-31T20:02:24.363Z,1.98
2022-12-31T20:04:54.992Z,2.03
2022-12-31T20:07:27.287Z,3.28
2022-12-31T20:09:57.923Z,2.25
2022-12-31T20:12:32.035Z,1.90
2022-12-31T20:15:02.443Z,1.63
2022-12-31T20:17:33.041Z,2.60
2022-12-31T20:20:03.390Z,2.90
2022-12-31T20:22:33.674Z,1.92
2022-12-31T20:25:04.025Z,1.60
2022-12-31T20:27:35.097Z,2.22
2022-12-31T20:30:05.663Z,2.17
2022-12-31T20:32:36.429Z,4.05
2022-12-31T20:35:07.364Z,1.88
2022-12-31T20:37:37.705Z,4.20
2022-12-31T20:40:08.919Z,4.93
2022-12-31T20:42:41.636Z,3.00
2022-12-31T20:45:13.228Z,2.35
2022-12-31T20:47:43.489Z,5.03
2022-12-31T20:50:13.933Z,2.15
2022-12-31T20:52:45.410Z,2.17
2022-12-31T20:55:19.774Z,4.88
2022-12-31T20:57:50.043Z,1.80
2022-12-31T21:00:21.004Z,1.60
2022-12-31T21:02:57.869Z,2.67
2022-12-31T21:05:34.459Z,3.53
2022-12-31T21:08:04.909Z,3.13
2022-12-31T21:10:36.260Z,1.75
2022-12-31T21:13:06.582Z,1.55
2022-12-31T21:15:37.358Z,2.70
2022-12-31T21:18:07.639Z,2.45
2022-12-31T21:20:37.928Z,5.20
2022-12-31T21:23:08.106Z,2.35
2022-12-31T21:25:38.572Z,4.63
2022-12-31T21:28:08.899Z,4.13
2022-12-31T21:30:42.138Z,2.22
2022-12-31T21:33:12.410Z,2.58
2022-12-31T21:35:48.468Z,2.50
2022-12-31T21:38:29.233Z,2.92
2022-12-31T21:41:05.227Z,2.95
2022-12-31T21:43:35.645Z,4.50
2022-12-31T21:46:10.617Z,2.53
2022-12-31T21:48:40.932Z,4.10
2022-12-31T21:51:16.875Z,4.38
2022-12-31T21:53:47.121Z,1.67
2022-12-31T21:56:20.259Z,3.50
2022-12-31T21:59:16.561Z,2.05
2022-12-31T22:02:05.076Z,3.53
2022-12-31T22:05:01.504Z,3.20
2022-12-31T22:07:25.737Z,3.80
2022-12-31T22:09:56.006Z,2.83
2022-12-31T22:12:27.004Z,2.08
2022-12-31T22:15:15.756Z,2.70
2022-12-31T22:17:46.539Z,1.88
2022-12-31T22:20:27.145Z,3.13
2022-12-31T22:22:58.512Z,2.03
2022-12-31T22:25:28.814Z,2.75
2022-12-31T22:28:36.208Z,2.95
2022-12-31T22:30:52.737Z,2.00
2022-12-31T22:33:23.608Z,2.08
2022-12-31T22:36:20.830Z,2.33
2022-12-31T22:38:53.022Z,4.75
2022-12-31T22:41:24.531Z,2.30
2022-12-31T22:44:03.236Z,2.92
2022-12-31T22:46:35.299Z,2.70
2022-12-31T22:49:07.539Z,4.15
2022-12-31T22:51:56.516Z,3.35
2022-12-31T22:54:28.129Z,3.70
2022-12-31T22:56:58.383Z,1.65
2022-12-31T22:59:28.642Z,4.57
2022-12-31T23:01:58.799Z,5.00
2022-12-31T23:04:29.108Z,1.95
2022-12-31T23:06:59.487Z,2.40
2022-12-31T23:09:49.057Z,2.83
2022-12-31T23:12:19.341Z,2.53
2022-12-31T23:15:07.581Z,3.67
2022-12-31T23:17:56.427Z,5.18
2022-12-31T23:20:45.775Z,1.40
2022-12-31T23:23:18.477Z,2.17
2022-12-31T23:25:51.386Z,2.45
2022-12-31T23:28:27.298Z,3.42
2022-12-31T23:30:57.519Z,3.53
2022-12-31T23:33:28.747Z,1.70
2022-12-31T23:36:09.010Z,1.60
2022-12-31T23:38:39.537Z,2.33
2022-12-31T23:41:18.000Z,1.63
2022-12-31T23:43:48.595Z,3.35
2022-12-31T23:46:20.017Z,1.52
2022-12-31T23:48:50.299Z,2.38
2022-12-31T23:51:20.658Z,1.75
2022-12-31T23:53:51.462Z,5.13
2022-12-31T23:56:24.235Z,1.80
2022-12-31T23:58:59.195Z,1.75
